sensor_id;sensor_type;location;lat;lon;timestamp;P1;durP1;ratioP1;P2;durP2;ratioP2
26936;SDS011;14495;48.116;11.676;2023-05-19T00:01:34;3.47;;;1.88;;
26936;SDS011;14495;48.116;11.676;2023-05-19T00:04:01;6.90;;;1.70;;
26936;SDS011;14495;48.116;11.676;2023-05-19T00:06:29;5.20;;;1.70;;
26936;SDS011;14495;48.116;11.676;2023-05-19T00:09:00;4.18;;;1.70;;
26936;SDS011;14495;48.116;11.676;2023-05-19T00:13:53;3.00;;;1.40;;
26936;SDS011;14495;48.116;11.676;2023-05-19T00:16:20;3.22;;;1.50;;
26936;SDS011;14495;48.116;11.676;2023-05-19T00:18:46;9.02;;;1.70;;
26936;SDS011;14495;48.116;11.676;2023-05-19T00:21:12;3.65;;;1.67;;
26936;SDS011;14495;48.116;11.676;2023-05-19T00:23:38;3.65;;;1.67;;
26936;SDS011;14495;48.116;11.676;2023-05-19T00:26:05;3.97;;;1.58;;
26936;SDS011;14495;48.116;11.676;2023-05-19T00:28:30;3.33;;;1.65;;
26936;SDS011;14495;48.116;11.676;2023-05-19T00:30:56;5.00;;;1.90;;
26936;SDS011;14495;48.116;11.676;2023-05-19T00:33:21;2.45;;;1.23;;
26936;SDS011;14495;48.116;11.676;2023-05-19T00:35:46;2.53;;;1.30;;
26936;SDS011;14495;48.116;11.676;2023-05-19T00:38:12;5.82;;;1.73;;
26936;SDS011;14495;48.116;11.676;2023-05-19T00:40:37;2.33;;;1.00;;
26936;SDS011;14495;48.116;11.676;2023-05-19T00:43:03;6.45;;;1.60;;
26936;SDS011;14495;48.116;11.676;2023-05-19T00:45:29;6.68;;;1.40;;
26936;SDS011;14495;48.116;11.676;2023-05-19T00:47:55;3.58;;;1.48;;
26936;SDS011;14495;48.116;11.676;2023-05-19T00:50:20;3.65;;;1.48;;
26936;SDS011;14495;48.116;11.676;2023-05-19T00:52:45;4.47;;;1.35;;
26936;SDS011;14495;48.116;11.676;2023-05-19T00:55:11;4.22;;;1.30;;
26936;SDS011;14495;48.116;11.676;2023-05-19T00:57:37;3.83;;;1.08;;
26936;SDS011;14495;48.116;11.676;2023-05-19T01:00:03;3.05;;;1.10;;
26936;SDS011;14495;48.116;11.676;2023-05-19T01:02:29;3.05;;;1.30;;
26936;SDS011;14495;48.116;11.676;2023-05-19T01:04:56;1.80;;;1.30;;
26936;SDS011;14495;48.116;11.676;2023-05-19T01:07:22;2.90;;;1.35;;
26936;SDS011;14495;48.116;11.676;2023-05-19T01:09:48;2.03;;;1.20;;
26936;SDS011;14495;48.116;11.676;2023-05-19T01:12:14;1.95;;;1.05;;
26936;SDS011;14495;48.116;11.676;2023-05-19T01:14:40;2.88;;;1.23;;
26936;SDS011;14495;48.116;11.676;2023-05-19T01:31:05;3.15;;;1.45;;
26936;SDS011;14495;48.116;11.676;2023-05-19T01:33:33;3.65;;;1.20;;
26936;SDS011;14495;48.116;11.676;2023-05-19T01:35:59;3.33;;;1.45;;
26936;SDS011;14495;48.116;11.676;2023-05-19T01:38:27;5.97;;;1.60;;
26936;SDS011;14495;48.116;11.676;2023-05-19T01:40:54;2.47;;;1.20;;
26936;SDS011;14495;48.116;11.676;2023-05-19T01:43:23;1.80;;;1.15;;
26936;SDS011;14495;48.116;11.676;2023-05-19T01:45:50;4.30;;;1.40;;
26936;SDS011;14495;48.116;11.676;2023-05-19T01:48:16;2.10;;;1.30;;
26936;SDS011;14495;48.116;11.676;2023-05-19T01:50:42;3.95;;;1.27;;
26936;SDS011;14495;48.116;11.676;2023-05-19T01:53:08;3.03;;;1.55;;
26936;SDS011;14495;48.116;11.676;2023-05-19T01:55:41;3.78;;;1.30;;
26936;SDS011;14495;48.116;11.676;2023-05-19T02:03:53;2.53;;;1.00;;
26936;SDS011;14495;48.116;11.676;2023-05-19T02:09:38;3.35;;;1.20;;
26936;SDS011;14495;48.116;11.676;2023-05-19T02:15:15;3.10;;;1.08;;
26936;SDS011;14495;48.116;11.676;2023-05-19T02:17:42;4.22;;;1.38;;
26936;SDS011;14495;48.116;11.676;2023-05-19T02:20:14;3.67;;;1.40;;
26936;SDS011;14495;48.116;11.676;2023-05-19T02:22:40;4.00;;;1.10;;
26936;SDS011;14495;48.116;11.676;2023-05-19T02:25:06;1.80;;;0.90;;
26936;SDS011;14495;48.116;11.676;2023-05-19T02:27:32;2.80;;;1.23;;
26936;SDS011;14495;48.116;11.676;2023-05-19T02:29:59;4.57;;;1.30;;
26936;SDS011;14495;48.116;11.676;2023-05-19T02:32:24;3.10;;;1.58;;
26936;SDS011;14495;48.116;11.676;2023-05-19T02:34:49;3.35;;;1.63;;
26936;SDS011;14495;48.116;11.676;2023-05-19T02:37:15;1.88;;;0.90;;
26936;SDS011;14495;48.116;11.676;2023-05-19T02:39:43;1.35;;;0.88;;
26936;SDS011;14495;48.116;11.676;2023-05-19T02:42:09;2.05;;;1.17;;
26936;SDS011;14495;48.116;11.676;2023-05-19T02:44:36;3.05;;;1.17;;
26936;SDS011;14495;48.116;11.676;2023-05-19T02:47:01;2.95;;;1.27;;
26936;SDS011;14495;48.116;11.676;2023-05-19T02:49:26;4.25;;;1.35;;
26936;SDS011;14495;48.116;11.676;2023-05-19T02:51:54;2.92;;;1.30;;
26936;SDS011;14495;48.116;11.676;2023-05-19T02:54:21;4.07;;;1.25;;
26936;SDS011;14495;48.116;11.676;2023-05-19T02:56:46;2.97;;;1.05;;
26936;SDS011;14495;48.116;11.676;2023-05-19T02:59:11;3.08;;;0.95;;
26936;SDS011;14495;48.116;11.676;2023-05-19T03:01:36;2.35;;;1.20;;
26936;SDS011;14495;48.116;11.676;2023-05-19T03:04:04;2.05;;;1.13;;
26936;SDS011;14495;48.116;11.676;2023-05-19T03:06:29;2.60;;;1.38;;
26936;SDS011;14495;48.116;11.676;2023-05-19T03:08:56;5.93;;;1.70;;
26936;SDS011;14495;48.116;11.676;2023-05-19T03:11:22;4.10;;;1.25;;
26936;SDS011;14495;48.116;11.676;2023-05-19T03:13:47;1.98;;;1.20;;
26936;SDS011;14495;48.116;11.676;2023-05-19T03:16:12;4.90;;;1.50;;
26936;SDS011;14495;48.116;11.676;2023-05-19T03:18:40;2.47;;;1.27;;
26936;SDS011;14495;48.116;11.676;2023-05-19T03:21:07;2.83;;;1.40;;
26936;SDS011;14495;48.116;11.676;2023-05-19T03:23:32;2.38;;;1.35;;
26936;SDS011;14495;48.116;11.676;2023-05-19T03:25:57;2.03;;;1.25;;
26936;SDS011;14495;48.116;11.676;2023-05-19T03:28:23;3.03;;;1.45;;
26936;SDS011;14495;48.116;11.676;2023-05-19T03:30:48;2.80;;;1.33;;
26936;SDS011;14495;48.116;11.676;2023-05-19T03:33:16;2.72;;;1.23;;
26936;SDS011;14495;48.116;11.676;2023-05-19T03:35:42;1.83;;;0.98;;
26936;SDS011;14495;48.116;11.676;2023-05-19T03:38:08;2.22;;;1.20;;
26936;SDS011;14495;48.116;11.676;2023-05-19T03:40:33;2.95;;;1.30;;
26936;SDS011;14495;48.116;11.676;2023-05-19T03:42:59;7.50;;;1.20;;
26936;SDS011;14495;48.116;11.676;2023-05-19T03:45:25;4.57;;;1.45;;
26936;SDS011;14495;48.116;11.676;2023-05-19T03:47:50;3.88;;;1.33;;
26936;SDS011;14495;48.116;11.676;2023-05-19T03:50:15;3.78;;;1.20;;
26936;SDS011;14495;48.116;11.676;2023-05-19T03:52:40;4.97;;;1.40;;
26936;SDS011;14495;48.116;11.676;2023-05-19T03:55:09;2.38;;;1.10;;
26936;SDS011;14495;48.116;11.676;2023-05-19T03:57:34;3.97;;;1.20;;
26936;SDS011;14495;48.116;11.676;2023-05-19T04:00:00;3.75;;;1.35;;
26936;SDS011;14495;48.116;11.676;2023-05-19T04:02:27;2.85;;;1.25;;
26936;SDS011;14495;48.116;11.676;2023-05-19T04:04:53;4.78;;;1.38;;
26936;SDS011;14495;48.116;11.676;2023-05-19T04:07:18;4.38;;;1.13;;
26936;SDS011;14495;48.116;11.676;2023-05-19T04:09:43;1.45;;;1.20;;
26936;SDS011;14495;48.116;11.676;2023-05-19T04:12:09;1.92;;;0.95;;
26936;SDS011;14495;48.116;11.676;2023-05-19T04:14:34;2.38;;;1.05;;
26936;SDS011;14495;48.116;11.676;2023-05-19T04:17:00;4.85;;;1.33;;
26936;SDS011;14495;48.116;11.676;2023-05-19T04:19:25;2.08;;;1.05;;
26936;SDS011;14495;48.116;11.676;2023-05-19T04:21:50;3.17;;;1.20;;
26936;SDS011;14495;48.116;11.676;2023-05-19T04:24:16;2.65;;;1.02;;
26936;SDS011;14495;48.116;11.676;2023-05-19T04:26:41;2.40;;;1.38;;
26936;SDS011;14495;48.116;11.676;2023-05-19T04:29:10;2.75;;;1.20;;
26936;SDS011;14495;48.116;11.676;2023-05-19T04:31:37;2.13;;;1.05;;
26936;SDS011;14495;48.116;11.676;2023-05-19T04:34:06;3.17;;;1.48;;
26936;SDS011;14495;48.116;11.676;2023-05-19T04:36:34;3.70;;;1.60;;
26936;SDS011;14495;48.116;11.676;2023-05-19T04:39:00;2.85;;;1.23;;
26936;SDS011;14495;48.116;11.676;2023-05-19T04:41:27;2.65;;;1.38;;
26936;SDS011;14495;48.116;11.676;2023-05-19T04:43:53;1.98;;;1.10;;
26936;SDS011;14495;48.116;11.676;2023-05-19T04:46:18;4.18;;;1.40;;
26936;SDS011;14495;48.116;11.676;2023-05-19T04:48:48;3.47;;;1.20;;
26936;SDS011;14495;48.116;11.676;2023-05-19T04:51:14;2.38;;;1.08;;
26936;SDS011;14495;48.116;11.676;2023-05-19T04:53:42;3.55;;;1.00;;
26936;SDS011;14495;48.116;11.676;2023-05-19T04:56:08;1.85;;;1.17;;
26936;SDS011;14495;48.116;11.676;2023-05-19T04:58:34;2.95;;;1.08;;
26936;SDS011;14495;48.116;11.676;2023-05-19T05:00:59;1.17;;;0.93;;
26936;SDS011;14495;48.116;11.676;2023-05-19T05:03:24;2.13;;;1.23;;
26936;SDS011;14495;48.116;11.676;2023-05-19T05:05:54;4.18;;;1.17;;
26936;SDS011;14495;48.116;11.676;2023-05-19T05:08:21;3.50;;;1.17;;
26936;SDS011;14495;48.116;11.676;2023-05-19T05:10:49;4.90;;;1.48;;
26936;SDS011;14495;48.116;11.676;2023-05-19T05:13:16;7.43;;;1.55;;
26936;SDS011;14495;48.116;11.676;2023-05-19T05:15:46;1.70;;;1.10;;
26936;SDS011;14495;48.116;11.676;2023-05-19T05:18:12;4.38;;;1.40;;
26936;SDS011;14495;48.116;11.676;2023-05-19T05:20:39;3.72;;;1.23;;
26936;SDS011;14495;48.116;11.676;2023-05-19T05:23:07;3.15;;;1.55;;
26936;SDS011;14495;48.116;11.676;2023-05-19T05:25:36;2.50;;;1.50;;
26936;SDS011;14495;48.116;11.676;2023-05-19T05:28:01;1.77;;;0.98;;
26936;SDS011;14495;48.116;11.676;2023-05-19T05:30:30;3.90;;;1.38;;
26936;SDS011;14495;48.116;11.676;2023-05-19T05:32:55;2.13;;;1.15;;
26936;SDS011;14495;48.116;11.676;2023-05-19T05:35:21;4.68;;;1.50;;
26936;SDS011;14495;48.116;11.676;2023-05-19T05:37:47;3.22;;;1.25;;
26936;SDS011;14495;48.116;11.676;2023-05-19T05:40:13;3.17;;;1.80;;
26936;SDS011;14495;48.116;11.676;2023-05-19T05:42:38;6.68;;;2.55;;
26936;SDS011;14495;48.116;11.676;2023-05-19T05:45:04;2.83;;;1.35;;
26936;SDS011;14495;48.116;11.676;2023-05-19T05:47:30;3.45;;;1.55;;
26936;SDS011;14495;48.116;11.676;2023-05-19T05:49:56;4.38;;;2.20;;
26936;SDS011;14495;48.116;11.676;2023-05-19T05:52:21;4.57;;;2.08;;
26936;SDS011;14495;48.116;11.676;2023-05-19T05:54:55;2.20;;;1.60;;
26936;SDS011;14495;48.116;11.676;2023-05-19T05:57:21;8.38;;;1.70;;
26936;SDS011;14495;48.116;11.676;2023-05-19T05:59:46;5.93;;;1.85;;
26936;SDS011;14495;48.116;11.676;2023-05-19T06:02:12;6.75;;;1.85;;
26936;SDS011;14495;48.116;11.676;2023-05-19T06:04:38;6.40;;;1.80;;
26936;SDS011;14495;48.116;11.676;2023-05-19T06:07:04;6.35;;;2.40;;
26936;SDS011;14495;48.116;11.676;2023-05-19T06:09:30;2.97;;;1.77;;
26936;SDS011;14495;48.116;11.676;2023-05-19T06:11:56;4.75;;;1.77;;
26936;SDS011;14495;48.116;11.676;2023-05-19T06:14:22;8.25;;;2.10;;
26936;SDS011;14495;48.116;11.676;2023-05-19T06:16:47;7.05;;;2.25;;
26936;SDS011;14495;48.116;11.676;2023-05-19T06:19:13;7.20;;;2.25;;
26936;SDS011;14495;48.116;11.676;2023-05-19T06:21:38;6.53;;;2.22;;
26936;SDS011;14495;48.116;11.676;2023-05-19T06:24:03;4.85;;;1.95;;
26936;SDS011;14495;48.116;11.676;2023-05-19T06:26:29;9.80;;;2.35;;
26936;SDS011;14495;48.116;11.676;2023-05-19T06:28:54;4.95;;;1.90;;
26936;SDS011;14495;48.116;11.676;2023-05-19T06:31:20;7.40;;;2.17;;
26936;SDS011;14495;48.116;11.676;2023-05-19T06:33:46;6.18;;;2.22;;
26936;SDS011;14495;48.116;11.676;2023-05-19T06:36:11;5.03;;;1.80;;
26936;SDS011;14495;48.116;11.676;2023-05-19T06:38:37;3.92;;;2.03;;
26936;SDS011;14495;48.116;11.676;2023-05-19T06:41:03;4.75;;;2.15;;
26936;SDS011;14495;48.116;11.676;2023-05-19T06:43:28;3.97;;;2.13;;
26936;SDS011;14495;48.116;11.676;2023-05-19T06:45:54;6.30;;;2.17;;
26936;SDS011;14495;48.116;11.676;2023-05-19T06:48:19;5.13;;;2.70;;
26936;SDS011;14495;48.116;11.676;2023-05-19T06:50:45;5.70;;;1.63;;
26936;SDS011;14495;48.116;11.676;2023-05-19T06:53:10;4.05;;;2.30;;
26936;SDS011;14495;48.116;11.676;2023-05-19T06:55:36;3.13;;;1.92;;
26936;SDS011;14495;48.116;11.676;2023-05-19T06:58:01;6.22;;;2.05;;
26936;SDS011;14495;48.116;11.676;2023-05-19T07:00:26;3.78;;;1.77;;
26936;SDS011;14495;48.116;11.676;2023-05-19T07:02:52;6.10;;;1.92;;
26936;SDS011;14495;48.116;11.676;2023-05-19T07:05:17;4.22;;;2.08;;
26936;SDS011;14495;48.116;11.676;2023-05-19T07:07:42;5.93;;;2.20;;
26936;SDS011;14495;48.116;11.676;2023-05-19T07:10:08;2.97;;;1.75;;
26936;SDS011;14495;48.116;11.676;2023-05-19T07:12:34;2.83;;;1.75;;
26936;SDS011;14495;48.116;11.676;2023-05-19T07:14:59;4.32;;;1.65;;
26936;SDS011;14495;48.116;11.676;2023-05-19T07:17:25;5.82;;;2.40;;
26936;SDS011;14495;48.116;11.676;2023-05-19T07:19:50;6.18;;;1.80;;
26936;SDS011;14495;48.116;11.676;2023-05-19T07:22:15;3.80;;;2.08;;
26936;SDS011;14495;48.116;11.676;2023-05-19T07:24:41;5.25;;;2.60;;
26936;SDS011;14495;48.116;11.676;2023-05-19T07:27:06;4.30;;;1.80;;
26936;SDS011;14495;48.116;11.676;2023-05-19T07:29:31;4.13;;;2.25;;
26936;SDS011;14495;48.116;11.676;2023-05-19T07:31:57;5.57;;;2.17;;
26936;SDS011;14495;48.116;11.676;2023-05-19T07:34:23;5.15;;;2.33;;
26936;SDS011;14495;48.116;11.676;2023-05-19T07:36:48;4.68;;;2.30;;
26936;SDS011;14495;48.116;11.676;2023-05-19T07:39:15;5.05;;;2.40;;
26936;SDS011;14495;48.116;11.676;2023-05-19T07:41:40;4.03;;;2.15;;
26936;SDS011;14495;48.116;11.676;2023-05-19T07:44:06;4.40;;;1.88;;
26936;SDS011;14495;48.116;11.676;2023-05-19T07:46:32;3.53;;;2.03;;
26936;SDS011;14495;48.116;11.676;2023-05-19T07:48:58;5.28;;;2.20;;
26936;SDS011;14495;48.116;11.676;2023-05-19T07:51:23;5.10;;;2.05;;
26936;SDS011;14495;48.116;11.676;2023-05-19T07:53:49;8.65;;;2.60;;
26936;SDS011;14495;48.116;11.676;2023-05-19T07:56:17;4.32;;;2.25;;
26936;SDS011;14495;48.116;11.676;2023-05-19T07:58:45;6.28;;;2.40;;
26936;SDS011;14495;48.116;11.676;2023-05-19T08:01:11;6.75;;;2.38;;
26936;SDS011;14495;48.116;11.676;2023-05-19T08:03:36;5.45;;;2.33;;
26936;SDS011;14495;48.116;11.676;2023-05-19T08:06:04;4.75;;;2.40;;
26936;SDS011;14495;48.116;11.676;2023-05-19T08:08:29;5.15;;;2.40;;
26936;SDS011;14495;48.116;11.676;2023-05-19T08:11:00;3.42;;;2.15;;
26936;SDS011;14495;48.116;11.676;2023-05-19T08:13:27;5.68;;;2.40;;
26936;SDS011;14495;48.116;11.676;2023-05-19T08:15:52;3.20;;;2.03;;
26936;SDS011;14495;48.116;11.676;2023-05-19T08:18:23;7.97;;;2.65;;
26936;SDS011;14495;48.116;11.676;2023-05-19T08:20:48;3.38;;;2.35;;
26936;SDS011;14495;48.116;11.676;2023-05-19T08:23:14;3.67;;;2.45;;
26936;SDS011;14495;48.116;11.676;2023-05-19T08:25:39;7.35;;;2.55;;
26936;SDS011;14495;48.116;11.676;2023-05-19T08:28:04;5.35;;;2.30;;
26936;SDS011;14495;48.116;11.676;2023-05-19T08:30:30;6.10;;;2.35;;
26936;SDS011;14495;48.116;11.676;2023-05-19T08:32:55;4.13;;;2.00;;
26936;SDS011;14495;48.116;11.676;2023-05-19T08:35:21;8.02;;;3.15;;
26936;SDS011;14495;48.116;11.676;2023-05-19T08:37:46;6.10;;;2.78;;
26936;SDS011;14495;48.116;11.676;2023-05-19T08:40:17;6.97;;;2.85;;
26936;SDS011;14495;48.116;11.676;2023-05-19T08:42:43;4.28;;;2.35;;
26936;SDS011;14495;48.116;11.676;2023-05-19T08:45:09;4.82;;;2.33;;
26936;SDS011;14495;48.116;11.676;2023-05-19T08:47:35;4.45;;;2.22;;
26936;SDS011;14495;48.116;11.676;2023-05-19T08:50:03;5.95;;;2.70;;
26936;SDS011;14495;48.116;11.676;2023-05-19T08:55:44;3.95;;;2.05;;
26936;SDS011;14495;48.116;11.676;2023-05-19T08:58:13;5.72;;;2.67;;
26936;SDS011;14495;48.116;11.676;2023-05-19T09:00:41;4.97;;;2.92;;
26936;SDS011;14495;48.116;11.676;2023-05-19T09:03:08;4.03;;;2.67;;
26936;SDS011;14495;48.116;11.676;2023-05-19T09:05:33;4.18;;;2.22;;
26936;SDS011;14495;48.116;11.676;2023-05-19T09:07:59;4.25;;;2.70;;
26936;SDS011;14495;48.116;11.676;2023-05-19T09:10:26;4.65;;;2.30;;
26936;SDS011;14495;48.116;11.676;2023-05-19T09:12:54;4.55;;;2.63;;
26936;SDS011;14495;48.116;11.676;2023-05-19T09:15:19;4.78;;;2.60;;
26936;SDS011;14495;48.116;11.676;2023-05-19T09:17:54;6.85;;;2.83;;
26936;SDS011;14495;48.116;11.676;2023-05-19T09:20:40;4.97;;;2.22;;
26936;SDS011;14495;48.116;11.676;2023-05-19T09:23:12;4.43;;;2.35;;
26936;SDS011;14495;48.116;11.676;2023-05-19T09:25:45;6.13;;;2.70;;
26936;SDS011;14495;48.116;11.676;2023-05-19T09:28:10;4.35;;;2.33;;
26936;SDS011;14495;48.116;11.676;2023-05-19T09:30:36;3.95;;;2.38;;
26936;SDS011;14495;48.116;11.676;2023-05-19T09:33:01;3.83;;;2.80;;
26936;SDS011;14495;48.116;11.676;2023-05-19T09:35:28;3.33;;;2.65;;
26936;SDS011;14495;48.116;11.676;2023-05-19T09:37:56;4.38;;;2.78;;
26936;SDS011;14495;48.116;11.676;2023-05-19T09:40:21;5.55;;;3.17;;
26936;SDS011;14495;48.116;11.676;2023-05-19T09:42:52;4.57;;;2.95;;
26936;SDS011;14495;48.116;11.676;2023-05-19T09:45:18;4.40;;;2.60;;
26936;SDS011;14495;48.116;11.676;2023-05-19T09:47:44;6.10;;;3.05;;
26936;SDS011;14495;48.116;11.676;2023-05-19T09:50:10;7.78;;;3.00;;
26936;SDS011;14495;48.116;11.676;2023-05-19T09:55:03;4.75;;;3.33;;
26936;SDS011;14495;48.116;11.676;2023-05-19T09:57:34;11.45;;;3.90;;
26936;SDS011;14495;48.116;11.676;2023-05-19T10:00:04;6.32;;;3.33;;
26936;SDS011;14495;48.116;11.676;2023-05-19T10:02:40;6.00;;;3.50;;
26936;SDS011;14495;48.116;11.676;2023-05-19T10:05:10;6.65;;;3.78;;
26936;SDS011;14495;48.116;11.676;2023-05-19T10:07:38;7.72;;;3.67;;
26936;SDS011;14495;48.116;11.676;2023-05-19T10:10:07;5.03;;;3.15;;
26936;SDS011;14495;48.116;11.676;2023-05-19T10:12:33;7.32;;;3.90;;
26936;SDS011;14495;48.116;11.676;2023-05-19T10:14:59;4.75;;;2.88;;
26936;SDS011;14495;48.116;11.676;2023-05-19T10:17:25;5.85;;;3.75;;
26936;SDS011;14495;48.116;11.676;2023-05-19T10:19:52;5.03;;;3.25;;
26936;SDS011;14495;48.116;11.676;2023-05-19T10:22:18;7.57;;;3.75;;
26936;SDS011;14495;48.116;11.676;2023-05-19T10:24:44;6.32;;;3.90;;
26936;SDS011;14495;48.116;11.676;2023-05-19T10:27:10;10.77;;;4.10;;
26936;SDS011;14495;48.116;11.676;2023-05-19T10:29:40;7.57;;;3.78;;
26936;SDS011;14495;48.116;11.676;2023-05-19T10:32:10;7.45;;;3.42;;
26936;SDS011;14495;48.116;11.676;2023-05-19T10:37:16;7.82;;;3.63;;
26936;SDS011;14495;48.116;11.676;2023-05-19T10:39:45;8.45;;;3.47;;
26936;SDS011;14495;48.116;11.676;2023-05-19T10:42:14;5.78;;;3.25;;
26936;SDS011;14495;48.116;11.676;2023-05-19T10:47:25;2.72;;;2.03;;
26936;SDS011;14495;48.116;11.676;2023-05-19T10:49:51;4.50;;;2.78;;
26936;SDS011;14495;48.116;11.676;2023-05-19T10:52:22;6.63;;;3.97;;
26936;SDS011;14495;48.116;11.676;2023-05-19T10:54:53;7.88;;;3.72;;
26936;SDS011;14495;48.116;11.676;2023-05-19T10:57:20;9.98;;;4.22;;
26936;SDS011;14495;48.116;11.676;2023-05-19T10:59:51;5.90;;;3.58;;
26936;SDS011;14495;48.116;11.676;2023-05-19T11:02:35;7.80;;;3.80;;
26936;SDS011;14495;48.116;11.676;2023-05-19T11:05:09;5.55;;;4.15;;
26936;SDS011;14495;48.116;11.676;2023-05-19T11:07:41;6.13;;;3.63;;
26936;SDS011;14495;48.116;11.676;2023-05-19T11:10:08;5.53;;;3.63;;
26936;SDS011;14495;48.116;11.676;2023-05-19T11:12:41;9.75;;;4.10;;
26936;SDS011;14495;48.116;11.676;2023-05-19T11:15:10;10.27;;;3.90;;
26936;SDS011;14495;48.116;11.676;2023-05-19T11:17:38;7.03;;;4.25;;
26936;SDS011;14495;48.116;11.676;2023-05-19T11:20:06;8.50;;;3.88;;
26936;SDS011;14495;48.116;11.676;2023-05-19T11:22:32;6.22;;;4.43;;
26936;SDS011;14495;48.116;11.676;2023-05-19T11:24:59;8.10;;;4.70;;
26936;SDS011;14495;48.116;11.676;2023-05-19T11:29:55;8.73;;;4.53;;
26936;SDS011;14495;48.116;11.676;2023-05-19T11:32:29;6.78;;;4.43;;
26936;SDS011;14495;48.116;11.676;2023-05-19T11:34:57;8.35;;;4.60;;
26936;SDS011;14495;48.116;11.676;2023-05-19T11:37:23;14.57;;;5.22;;
26936;SDS011;14495;48.116;11.676;2023-05-19T11:39:49;8.27;;;4.95;;
26936;SDS011;14495;48.116;11.676;2023-05-19T11:42:16;9.35;;;5.45;;
26936;SDS011;14495;48.116;11.676;2023-05-19T11:44:44;7.35;;;4.63;;
26936;SDS011;14495;48.116;11.676;2023-05-19T11:47:13;13.20;;;5.50;;
26936;SDS011;14495;48.116;11.676;2023-05-19T11:49:43;8.13;;;4.82;;
26936;SDS011;14495;48.116;11.676;2023-05-19T11:52:09;6.15;;;4.68;;
26936;SDS011;14495;48.116;11.676;2023-05-19T11:54:35;7.03;;;3.85;;
26936;SDS011;14495;48.116;11.676;2023-05-19T11:57:04;9.63;;;5.00;;
26936;SDS011;14495;48.116;11.676;2023-05-19T11:59:30;8.30;;;4.78;;
26936;SDS011;14495;48.116;11.676;2023-05-19T12:02:06;9.07;;;4.75;;
26936;SDS011;14495;48.116;11.676;2023-05-19T12:04:40;8.23;;;4.90;;
26936;SDS011;14495;48.116;11.676;2023-05-19T12:07:12;7.03;;;4.35;;
26936;SDS011;14495;48.116;11.676;2023-05-19T12:09:41;7.35;;;4.88;;
26936;SDS011;14495;48.116;11.676;2023-05-19T12:12:07;6.07;;;4.25;;
26936;SDS011;14495;48.116;11.676;2023-05-19T12:14:32;8.18;;;5.13;;
26936;SDS011;14495;48.116;11.676;2023-05-19T12:17:08;6.78;;;4.20;;
26936;SDS011;14495;48.116;11.676;2023-05-19T12:19:37;7.63;;;5.65;;
26936;SDS011;14495;48.116;11.676;2023-05-19T12:22:04;9.00;;;5.25;;
26936;SDS011;14495;48.116;11.676;2023-05-19T12:24:31;9.05;;;5.40;;
26936;SDS011;14495;48.116;11.676;2023-05-19T12:29:51;10.50;;;5.55;;
26936;SDS011;14495;48.116;11.676;2023-05-19T12:32:18;9.23;;;5.18;;
26936;SDS011;14495;48.116;11.676;2023-05-19T12:34:54;8.82;;;5.18;;
26936;SDS011;14495;48.116;11.676;2023-05-19T12:37:20;8.73;;;4.80;;
26936;SDS011;14495;48.116;11.676;2023-05-19T12:39:47;8.35;;;4.72;;
26936;SDS011;14495;48.116;11.676;2023-05-19T12:42:13;9.32;;;4.97;;
26936;SDS011;14495;48.116;11.676;2023-05-19T12:44:46;9.55;;;5.28;;
26936;SDS011;14495;48.116;11.676;2023-05-19T12:47:17;9.57;;;5.60;;
26936;SDS011;14495;48.116;11.676;2023-05-19T12:49:59;7.60;;;5.03;;
26936;SDS011;14495;48.116;11.676;2023-05-19T12:52:29;9.02;;;5.03;;
26936;SDS011;14495;48.116;11.676;2023-05-19T12:55:03;11.27;;;5.68;;
26936;SDS011;14495;48.116;11.676;2023-05-19T12:57:32;10.48;;;5.20;;
26936;SDS011;14495;48.116;11.676;2023-05-19T13:02:32;7.05;;;4.63;;
26936;SDS011;14495;48.116;11.676;2023-05-19T13:04:58;6.15;;;4.55;;
26936;SDS011;14495;48.116;11.676;2023-05-19T13:07:23;11.85;;;5.10;;
26936;SDS011;14495;48.116;11.676;2023-05-19T13:09:49;21.88;;;5.72;;
26936;SDS011;14495;48.116;11.676;2023-05-19T13:12:14;13.73;;;5.22;;
26936;SDS011;14495;48.116;11.676;2023-05-19T13:14:39;8.15;;;4.90;;
26936;SDS011;14495;48.116;11.676;2023-05-19T13:17:07;9.80;;;5.03;;
26936;SDS011;14495;48.116;11.676;2023-05-19T13:19:33;7.50;;;5.05;;
26936;SDS011;14495;48.116;11.676;2023-05-19T13:21:58;7.93;;;4.70;;
26936;SDS011;14495;48.116;11.676;2023-05-19T13:24:23;8.85;;;5.57;;
26936;SDS011;14495;48.116;11.676;2023-05-19T13:26:49;10.60;;;6.03;;
26936;SDS011;14495;48.116;11.676;2023-05-19T13:29:14;8.38;;;4.97;;
26936;SDS011;14495;48.116;11.676;2023-05-19T13:31:39;9.75;;;5.32;;
26936;SDS011;14495;48.116;11.676;2023-05-19T13:34:05;7.65;;;4.95;;
26936;SDS011;14495;48.116;11.676;2023-05-19T13:36:33;8.77;;;5.90;;
26936;SDS011;14495;48.116;11.676;2023-05-19T13:38:59;5.70;;;4.85;;
26936;SDS011;14495;48.116;11.676;2023-05-19T13:41:25;7.80;;;5.20;;
26936;SDS011;14495;48.116;11.676;2023-05-19T13:43:51;8.93;;;5.05;;
26936;SDS011;14495;48.116;11.676;2023-05-19T13:46:17;10.93;;;5.53;;
26936;SDS011;14495;48.116;11.676;2023-05-19T13:48:42;7.97;;;4.32;;
26936;SDS011;14495;48.116;11.676;2023-05-19T13:51:08;8.05;;;5.15;;
26936;SDS011;14495;48.116;11.676;2023-05-19T13:53:33;12.77;;;5.65;;
26936;SDS011;14495;48.116;11.676;2023-05-19T13:55:59;9.55;;;5.18;;
26936;SDS011;14495;48.116;11.676;2023-05-19T13:58:27;10.00;;;5.63;;
26936;SDS011;14495;48.116;11.676;2023-05-19T14:00:53;10.95;;;5.22;;
26936;SDS011;14495;48.116;11.676;2023-05-19T14:03:20;9.52;;;6.18;;
26936;SDS011;14495;48.116;11.676;2023-05-19T14:05:46;10.10;;;5.43;;
26936;SDS011;14495;48.116;11.676;2023-05-19T14:08:12;6.70;;;4.63;;
26936;SDS011;14495;48.116;11.676;2023-05-19T14:10:37;8.35;;;4.78;;
26936;SDS011;14495;48.116;11.676;2023-05-19T14:13:03;11.27;;;5.63;;
26936;SDS011;14495;48.116;11.676;2023-05-19T14:15:28;8.90;;;5.20;;
26936;SDS011;14495;48.116;11.676;2023-05-19T14:17:54;13.00;;;5.20;;
26936;SDS011;14495;48.116;11.676;2023-05-19T14:20:19;7.85;;;5.20;;
26936;SDS011;14495;48.116;11.676;2023-05-19T14:22:45;9.95;;;5.75;;
26936;SDS011;14495;48.116;11.676;2023-05-19T14:25:10;12.30;;;5.55;;
26936;SDS011;14495;48.116;11.676;2023-05-19T14:27:35;8.10;;;5.60;;
26936;SDS011;14495;48.116;11.676;2023-05-19T14:30:01;8.55;;;5.72;;
26936;SDS011;14495;48.116;11.676;2023-05-19T14:32:27;11.13;;;5.30;;
26936;SDS011;14495;48.116;11.676;2023-05-19T14:34:52;10.73;;;5.60;;
26936;SDS011;14495;48.116;11.676;2023-05-19T14:37:18;10.40;;;6.05;;
26936;SDS011;14495;48.116;11.676;2023-05-19T14:39:44;9.88;;;6.50;;
26936;SDS011;14495;48.116;11.676;2023-05-19T14:42:09;9.50;;;5.80;;
26936;SDS011;14495;48.116;11.676;2023-05-19T14:44:35;12.82;;;5.97;;
26936;SDS011;14495;48.116;11.676;2023-05-19T14:47:01;12.48;;;5.93;;
26936;SDS011;14495;48.116;11.676;2023-05-19T14:49:28;9.55;;;5.22;;
26936;SDS011;14495;48.116;11.676;2023-05-19T14:51:53;12.38;;;6.75;;
26936;SDS011;14495;48.116;11.676;2023-05-19T14:54:19;10.38;;;6.10;;
26936;SDS011;14495;48.116;11.676;2023-05-19T14:56:44;10.23;;;6.38;;
26936;SDS011;14495;48.116;11.676;2023-05-19T14:59:09;10.00;;;6.07;;
26936;SDS011;14495;48.116;11.676;2023-05-19T15:01:35;10.80;;;6.60;;
26936;SDS011;14495;48.116;11.676;2023-05-19T15:04:00;9.52;;;6.05;;
26936;SDS011;14495;48.116;11.676;2023-05-19T15:06:25;8.43;;;6.07;;
26936;SDS011;14495;48.116;11.676;2023-05-19T15:08:51;12.82;;;6.00;;
26936;SDS011;14495;48.116;11.676;2023-05-19T15:11:16;11.35;;;6.35;;
26936;SDS011;14495;48.116;11.676;2023-05-19T15:13:41;9.05;;;5.13;;
26936;SDS011;14495;48.116;11.676;2023-05-19T15:16:07;8.23;;;5.85;;
26936;SDS011;14495;48.116;11.676;2023-05-19T15:18:34;10.95;;;6.32;;